sensor_id;sensor_type;location;lat;lon;timestamp;P1;durP1;ratioP1;P2;durP2;ratioP2
6735;SDS011;3405;50.576;12.364;2023-08-07T00:00:39;0.47;;;0.28;;
6735;SDS011;3405;50.576;12.364;2023-08-07T00:03:05;0.50;;;0.50;;
6735;SDS011;3405;50.576;12.364;2023-08-07T00:05:31;0.63;;;0.57;;
6735;SDS011;3405;50.576;12.364;2023-08-07T00:07:57;0.40;;;0.40;;
6735;SDS011;3405;50.576;12.364;2023-08-07T00:10:23;2.60;;;0.40;;
6735;SDS011;3405;50.576;12.364;2023-08-07T00:12:49;0.30;;;0.30;;
6735;SDS011;3405;50.576;12.364;2023-08-07T00:15:15;2.00;;;0.50;;
6735;SDS011;3405;50.576;12.364;2023-08-07T00:17:41;0.40;;;0.40;;
6735;SDS011;3405;50.576;12.364;2023-08-07T00:20:07;1.25;;;0.30;;
6735;SDS011;3405;50.576;12.364;2023-08-07T00:22:33;0.50;;;0.50;;
6735;SDS011;3405;50.576;12.364;2023-08-07T00:24:59;0.82;;;0.50;;
6735;SDS011;3405;50.576;12.364;2023-08-07T00:27:26;0.20;;;0.20;;
6735;SDS011;3405;50.576;12.364;2023-08-07T00:29:52;0.40;;;0.30;;
6735;SDS011;3405;50.576;12.364;2023-08-07T00:32:17;0.30;;;0.30;;
6735;SDS011;3405;50.576;12.364;2023-08-07T00:34:43;0.30;;;0.30;;
6735;SDS011;3405;50.576;12.364;2023-08-07T00:37:09;0.40;;;0.40;;
6735;SDS011;3405;50.576;12.364;2023-08-07T00:39:35;0.32;;;0.32;;
6735;SDS011;3405;50.576;12.364;2023-08-07T00:42:01;0.50;;;0.50;;
6735;SDS011;3405;50.576;12.364;2023-08-07T00:44:27;1.25;;;0.40;;
6735;SDS011;3405;50.576;12.364;2023-08-07T00:46:53;0.82;;;0.50;;
6735;SDS011;3405;50.576;12.364;2023-08-07T00:49:19;0.28;;;0.28;;
6735;SDS011;3405;50.576;12.364;2023-08-07T00:51:46;0.40;;;0.40;;
6735;SDS011;3405;50.576;12.364;2023-08-07T00:54:12;0.50;;;0.50;;
6735;SDS011;3405;50.576;12.364;2023-08-07T00:56:40;1.15;;;0.32;;
6735;SDS011;3405;50.576;12.364;2023-08-07T00:59:06;0.95;;;0.40;;
6735;SDS011;3405;50.576;12.364;2023-08-07T01:01:32;0.30;;;0.30;;
6735;SDS011;3405;50.576;12.364;2023-08-07T01:03:58;0.30;;;0.30;;
6735;SDS011;3405;50.576;12.364;2023-08-07T01:06:24;0.32;;;0.32;;
6735;SDS011;3405;50.576;12.364;2023-08-07T01:08:50;0.38;;;0.30;;
6735;SDS011;3405;50.576;12.364;2023-08-07T01:11:24;2.45;;;0.40;;
6735;SDS011;3405;50.576;12.364;2023-08-07T01:16:45;0.60;;;0.43;;
6735;SDS011;3405;50.576;12.364;2023-08-07T01:19:19;0.55;;;0.30;;
6735;SDS011;3405;50.576;12.364;2023-08-07T01:21:49;0.55;;;0.55;;
6735;SDS011;3405;50.576;12.364;2023-08-07T01:24:15;1.65;;;0.50;;
6735;SDS011;3405;50.576;12.364;2023-08-07T01:26:42;0.35;;;0.35;;
6735;SDS011;3405;50.576;12.364;2023-08-07T01:29:31;0.70;;;0.60;;
6735;SDS011;3405;50.576;12.364;2023-08-07T01:31:59;0.73;;;0.57;;
6735;SDS011;3405;50.576;12.364;2023-08-07T01:34:26;4.03;;;0.50;;
6735;SDS011;3405;50.576;12.364;2023-08-07T01:36:53;0.47;;;0.47;;
6735;SDS011;3405;50.576;12.364;2023-08-07T01:39:20;0.40;;;0.40;;
6735;SDS011;3405;50.576;12.364;2023-08-07T01:41:46;0.52;;;0.52;;
6735;SDS011;3405;50.576;12.364;2023-08-07T01:44:12;0.70;;;0.47;;
6735;SDS011;3405;50.576;12.364;2023-08-07T01:46:38;0.40;;;0.40;;
6735;SDS011;3405;50.576;12.364;2023-08-07T01:49:04;0.95;;;0.50;;
6735;SDS011;3405;50.576;12.364;2023-08-07T01:51:30;0.38;;;0.38;;
6735;SDS011;3405;50.576;12.364;2023-08-07T01:53:56;0.50;;;0.50;;
6735;SDS011;3405;50.576;12.364;2023-08-07T01:56:22;1.20;;;0.57;;
6735;SDS011;3405;50.576;12.364;2023-08-07T01:58:48;0.45;;;0.45;;
6735;SDS011;3405;50.576;12.364;2023-08-07T02:01:13;0.30;;;0.30;;
6735;SDS011;3405;50.576;12.364;2023-08-07T02:03:39;0.73;;;0.70;;
6735;SDS011;3405;50.576;12.364;2023-08-07T02:06:05;1.67;;;0.43;;
6735;SDS011;3405;50.576;12.364;2023-08-07T02:08:31;0.43;;;0.43;;
6735;SDS011;3405;50.576;12.364;2023-08-07T02:10:57;0.30;;;0.30;;
6735;SDS011;3405;50.576;12.364;2023-08-07T02:13:26;0.50;;;0.40;;
6735;SDS011;3405;50.576;12.364;2023-08-07T02:15:52;0.45;;;0.45;;
6735;SDS011;3405;50.576;12.364;2023-08-07T02:18:18;0.55;;;0.30;;
6735;SDS011;3405;50.576;12.364;2023-08-07T02:20:44;1.52;;;0.38;;
6735;SDS011;3405;50.576;12.364;2023-08-07T02:23:11;0.40;;;0.40;;
6735;SDS011;3405;50.576;12.364;2023-08-07T02:25:37;1.25;;;0.40;;
6735;SDS011;3405;50.576;12.364;2023-08-07T02:28:03;0.40;;;0.40;;
6735;SDS011;3405;50.576;12.364;2023-08-07T02:30:30;2.55;;;0.43;;
6735;SDS011;3405;50.576;12.364;2023-08-07T02:32:56;0.50;;;0.50;;
6735;SDS011;3405;50.576;12.364;2023-08-07T02:35:22;1.58;;;0.40;;
6735;SDS011;3405;50.576;12.364;2023-08-07T02:37:48;0.50;;;0.50;;
6735;SDS011;3405;50.576;12.364;2023-08-07T02:40:14;0.32;;;0.32;;
6735;SDS011;3405;50.576;12.364;2023-08-07T02:42:40;0.47;;;0.45;;
6735;SDS011;3405;50.576;12.364;2023-08-07T02:45:07;0.50;;;0.50;;
6735;SDS011;3405;50.576;12.364;2023-08-07T02:47:33;0.30;;;0.30;;
6735;SDS011;3405;50.576;12.364;2023-08-07T02:49:59;1.25;;;0.50;;
6735;SDS011;3405;50.576;12.364;2023-08-07T02:52:25;0.50;;;0.50;;
6735;SDS011;3405;50.576;12.364;2023-08-07T02:54:51;0.40;;;0.40;;
6735;SDS011;3405;50.576;12.364;2023-08-07T02:57:17;0.30;;;0.30;;
6735;SDS011;3405;50.576;12.364;2023-08-07T02:59:43;0.38;;;0.38;;
6735;SDS011;3405;50.576;12.364;2023-08-07T03:02:09;1.55;;;0.40;;
6735;SDS011;3405;50.576;12.364;2023-08-07T03:04:35;0.65;;;0.40;;
6735;SDS011;3405;50.576;12.364;2023-08-07T03:07:01;0.45;;;0.45;;
6735;SDS011;3405;50.576;12.364;2023-08-07T03:09:27;0.50;;;0.50;;
6735;SDS011;3405;50.576;12.364;2023-08-07T03:11:53;1.20;;;0.60;;
6735;SDS011;3405;50.576;12.364;2023-08-07T03:14:19;0.20;;;0.20;;
6735;SDS011;3405;50.576;12.364;2023-08-07T03:16:45;0.60;;;0.50;;
6735;SDS011;3405;50.576;12.364;2023-08-07T03:19:11;0.40;;;0.40;;
6735;SDS011;3405;50.576;12.364;2023-08-07T03:21:37;0.50;;;0.50;;
6735;SDS011;3405;50.576;12.364;2023-08-07T03:24:03;0.32;;;0.32;;
6735;SDS011;3405;50.576;12.364;2023-08-07T03:26:29;1.60;;;0.30;;
6735;SDS011;3405;50.576;12.364;2023-08-07T03:28:55;1.13;;;0.60;;
6735;SDS011;3405;50.576;12.364;2023-08-07T03:31:21;0.45;;;0.40;;
6735;SDS011;3405;50.576;12.364;2023-08-07T03:33:47;0.60;;;0.60;;
6735;SDS011;3405;50.576;12.364;2023-08-07T03:36:13;0.40;;;0.40;;
6735;SDS011;3405;50.576;12.364;2023-08-07T03:38:39;0.77;;;0.50;;
6735;SDS011;3405;50.576;12.364;2023-08-07T03:41:05;6.35;;;1.00;;
6735;SDS011;3405;50.576;12.364;2023-08-07T03:43:31;7.07;;;1.77;;
6735;SDS011;3405;50.576;12.364;2023-08-07T03:45:57;1.73;;;1.05;;
6735;SDS011;3405;50.576;12.364;2023-08-07T03:48:23;2.88;;;1.10;;
6735;SDS011;3405;50.576;12.364;2023-08-07T03:50:49;2.20;;;1.00;;
6735;SDS011;3405;50.576;12.364;2023-08-07T03:53:15;4.82;;;1.00;;
6735;SDS011;3405;50.576;12.364;2023-08-07T03:55:41;4.93;;;1.30;;
6735;SDS011;3405;50.576;12.364;2023-08-07T03:58:07;2.03;;;0.88;;
6735;SDS011;3405;50.576;12.364;2023-08-07T04:00:33;3.08;;;0.90;;
6735;SDS011;3405;50.576;12.364;2023-08-07T04:02:59;4.22;;;1.00;;
6735;SDS011;3405;50.576;12.364;2023-08-07T04:05:25;3.25;;;1.20;;
6735;SDS011;3405;50.576;12.364;2023-08-07T04:07:51;4.05;;;1.30;;
6735;SDS011;3405;50.576;12.364;2023-08-07T04:10:17;5.72;;;2.67;;
6735;SDS011;3405;50.576;12.364;2023-08-07T04:12:43;7.95;;;6.03;;
6735;SDS011;3405;50.576;12.364;2023-08-07T04:15:09;12.10;;;10.05;;
6735;SDS011;3405;50.576;12.364;2023-08-07T04:17:35;15.52;;;11.63;;
6735;SDS011;3405;50.576;12.364;2023-08-07T04:20:01;16.55;;;12.23;;
6735;SDS011;3405;50.576;12.364;2023-08-07T04:22:28;13.55;;;12.15;;
6735;SDS011;3405;50.576;12.364;2023-08-07T04:24:54;15.73;;;13.70;;
6735;SDS011;3405;50.576;12.364;2023-08-07T04:27:20;19.05;;;15.07;;
6735;SDS011;3405;50.576;12.364;2023-08-07T04:29:46;32.97;;;18.35;;
6735;SDS011;3405;50.576;12.364;2023-08-07T04:32:12;30.52;;;17.98;;
6735;SDS011;3405;50.576;12.364;2023-08-07T04:34:38;26.27;;;19.65;;
6735;SDS011;3405;50.576;12.364;2023-08-07T04:37:04;30.05;;;21.15;;
6735;SDS011;3405;50.576;12.364;2023-08-07T04:39:31;30.60;;;20.10;;
6735;SDS011;3405;50.576;12.364;2023-08-07T04:41:57;30.55;;;20.35;;
6735;SDS011;3405;50.576;12.364;2023-08-07T04:44:23;24.83;;;18.42;;
6735;SDS011;3405;50.576;12.364;2023-08-07T04:46:49;23.63;;;19.08;;
6735;SDS011;3405;50.576;12.364;2023-08-07T04:49:15;30.27;;;17.98;;
6735;SDS011;3405;50.576;12.364;2023-08-07T04:51:41;23.15;;;17.02;;
6735;SDS011;3405;50.576;12.364;2023-08-07T04:54:07;19.63;;;16.00;;
6735;SDS011;3405;50.576;12.364;2023-08-07T04:56:33;19.42;;;15.45;;
6735;SDS011;3405;50.576;12.364;2023-08-07T04:58:59;20.60;;;15.13;;
6735;SDS011;3405;50.576;12.364;2023-08-07T05:01:26;18.75;;;13.20;;
6735;SDS011;3405;50.576;12.364;2023-08-07T05:03:52;16.10;;;13.48;;
6735;SDS011;3405;50.576;12.364;2023-08-07T05:06:18;15.55;;;12.05;;
6735;SDS011;3405;50.576;12.364;2023-08-07T05:08:44;14.23;;;11.90;;
6735;SDS011;3405;50.576;12.364;2023-08-07T05:11:10;14.77;;;11.80;;
6735;SDS011;3405;50.576;12.364;2023-08-07T05:13:36;15.43;;;11.52;;
6735;SDS011;3405;50.576;12.364;2023-08-07T05:16:02;13.40;;;10.52;;
6735;SDS011;3405;50.576;12.364;2023-08-07T05:18:28;12.95;;;10.73;;
6735;SDS011;3405;50.576;12.364;2023-08-07T05:20:54;14.55;;;10.18;;
6735;SDS011;3405;50.576;12.364;2023-08-07T05:23:20;12.40;;;9.80;;
6735;SDS011;3405;50.576;12.364;2023-08-07T05:25:46;13.52;;;10.25;;
6735;SDS011;3405;50.576;12.364;2023-08-07T05:28:12;12.15;;;9.52;;
6735;SDS011;3405;50.576;12.364;2023-08-07T05:30:38;13.85;;;9.10;;
6735;SDS011;3405;50.576;12.364;2023-08-07T05:33:04;11.43;;;8.45;;
6735;SDS011;3405;50.576;12.364;2023-08-07T05:35:30;15.25;;;8.82;;
6735;SDS011;3405;50.576;12.364;2023-08-07T05:37:56;9.70;;;7.75;;
6735;SDS011;3405;50.576;12.364;2023-08-07T05:40:22;10.60;;;7.93;;
6735;SDS011;3405;50.576;12.364;2023-08-07T05:42:48;14.93;;;8.77;;
6735;SDS011;3405;50.576;12.364;2023-08-07T05:45:14;8.15;;;7.03;;
6735;SDS011;3405;50.576;12.364;2023-08-07T05:47:40;12.93;;;7.35;;
6735;SDS011;3405;50.576;12.364;2023-08-07T05:50:06;11.95;;;7.18;;
6735;SDS011;3405;50.576;12.364;2023-08-07T05:52:32;12.73;;;7.38;;
6735;SDS011;3405;50.576;12.364;2023-08-07T05:54:58;9.38;;;6.90;;
6735;SDS011;3405;50.576;12.364;2023-08-07T05:57:24;16.33;;;7.05;;
6735;SDS011;3405;50.576;12.364;2023-08-07T05:59:50;10.00;;;6.85;;
6735;SDS011;3405;50.576;12.364;2023-08-07T06:02:16;12.95;;;7.15;;
6735;SDS011;3405;50.576;12.364;2023-08-07T06:04:42;14.43;;;7.13;;
6735;SDS011;3405;50.576;12.364;2023-08-07T06:07:08;12.63;;;6.65;;
6735;SDS011;3405;50.576;12.364;2023-08-07T06:09:34;10.35;;;5.80;;
6735;SDS011;3405;50.576;12.364;2023-08-07T06:12:00;14.02;;;6.93;;
6735;SDS011;3405;50.576;12.364;2023-08-07T06:14:26;10.63;;;6.30;;
6735;SDS011;3405;50.576;12.364;2023-08-07T06:16:53;7.40;;;5.90;;
6735;SDS011;3405;50.576;12.364;2023-08-07T06:19:20;11.52;;;5.80;;
6735;SDS011;3405;50.576;12.364;2023-08-07T06:21:47;9.25;;;5.28;;
6735;SDS011;3405;50.576;12.364;2023-08-07T06:24:13;8.88;;;5.47;;
6735;SDS011;3405;50.576;12.364;2023-08-07T06:26:39;8.48;;;5.72;;
6735;SDS011;3405;50.576;12.364;2023-08-07T06:29:05;12.07;;;5.03;;
6735;SDS011;3405;50.576;12.364;2023-08-07T06:31:31;11.30;;;5.32;;
6735;SDS011;3405;50.576;12.364;2023-08-07T06:33:57;9.00;;;4.97;;
6735;SDS011;3405;50.576;12.364;2023-08-07T06:36:24;10.32;;;5.00;;
6735;SDS011;3405;50.576;12.364;2023-08-07T06:38:51;8.88;;;4.47;;
6735;SDS011;3405;50.576;12.364;2023-08-07T06:41:17;10.68;;;4.72;;
6735;SDS011;3405;50.576;12.364;2023-08-07T06:43:43;9.00;;;4.70;;
6735;SDS011;3405;50.576;12.364;2023-08-07T06:46:08;8.90;;;4.20;;
6735;SDS011;3405;50.576;12.364;2023-08-07T06:48:36;6.63;;;4.05;;
6735;SDS011;3405;50.576;12.364;2023-08-07T06:51:02;8.77;;;4.20;;
6735;SDS011;3405;50.576;12.364;2023-08-07T06:53:28;8.48;;;4.80;;
6735;SDS011;3405;50.576;12.364;2023-08-07T06:55:54;7.88;;;4.20;;
6735;SDS011;3405;50.576;12.364;2023-08-07T06:58:20;6.72;;;3.92;;
6735;SDS011;3405;50.576;12.364;2023-08-07T07:00:46;11.98;;;3.90;;
6735;SDS011;3405;50.576;12.364;2023-08-07T07:03:12;6.72;;;3.72;;
6735;SDS011;3405;50.576;12.364;2023-08-07T07:05:37;8.93;;;4.10;;
6735;SDS011;3405;50.576;12.364;2023-08-07T07:08:04;8.90;;;4.18;;
6735;SDS011;3405;50.576;12.364;2023-08-07T07:10:29;7.38;;;3.50;;
6735;SDS011;3405;50.576;12.364;2023-08-07T07:12:55;4.95;;;3.47;;
6735;SDS011;3405;50.576;12.364;2023-08-07T07:15:21;5.97;;;3.63;;
6735;SDS011;3405;50.576;12.364;2023-08-07T07:17:47;8.75;;;3.60;;
6735;SDS011;3405;50.576;12.364;2023-08-07T07:20:13;5.78;;;3.30;;
6735;SDS011;3405;50.576;12.364;2023-08-07T07:22:39;8.73;;;3.03;;
6735;SDS011;3405;50.576;12.364;2023-08-07T07:25:05;9.20;;;3.20;;
6735;SDS011;3405;50.576;12.364;2023-08-07T07:27:31;7.07;;;3.08;;
6735;SDS011;3405;50.576;12.364;2023-08-07T07:29:57;10.50;;;2.65;;
6735;SDS011;3405;50.576;12.364;2023-08-07T07:32:23;4.28;;;2.97;;
6735;SDS011;3405;50.576;12.364;2023-08-07T07:34:51;4.82;;;2.53;;
6735;SDS011;3405;50.576;12.364;2023-08-07T07:37:17;4.00;;;2.45;;
6735;SDS011;3405;50.576;12.364;2023-08-07T07:39:43;6.80;;;2.35;;
6735;SDS011;3405;50.576;12.364;2023-08-07T07:42:09;5.10;;;2.38;;
6735;SDS011;3405;50.576;12.364;2023-08-07T07:44:34;5.47;;;2.78;;
6735;SDS011;3405;50.576;12.364;2023-08-07T07:47:01;13.15;;;2.53;;
6735;SDS011;3405;50.576;12.364;2023-08-07T07:49:27;2.85;;;2.10;;
6735;SDS011;3405;50.576;12.364;2023-08-07T07:51:53;3.72;;;1.92;;
6735;SDS011;3405;50.576;12.364;2023-08-07T07:54:19;2.53;;;1.92;;
6735;SDS011;3405;50.576;12.364;2023-08-07T07:56:45;2.97;;;2.00;;
6735;SDS011;3405;50.576;12.364;2023-08-07T07:59:11;3.33;;;2.17;;
6735;SDS011;3405;50.576;12.364;2023-08-07T08:01:38;4.45;;;1.98;;
6735;SDS011;3405;50.576;12.364;2023-08-07T08:04:04;4.43;;;1.90;;
6735;SDS011;3405;50.576;12.364;2023-08-07T08:06:31;2.88;;;2.00;;
6735;SDS011;3405;50.576;12.364;2023-08-07T08:08:57;5.22;;;2.00;;
6735;SDS011;3405;50.576;12.364;2023-08-07T08:11:23;2.53;;;1.58;;
6735;SDS011;3405;50.576;12.364;2023-08-07T08:13:49;1.55;;;1.33;;
6735;SDS011;3405;50.576;12.364;2023-08-07T08:16:14;1.60;;;1.50;;
6735;SDS011;3405;50.576;12.364;2023-08-07T08:18:41;1.88;;;1.67;;
6735;SDS011;3405;50.576;12.364;2023-08-07T08:21:06;1.58;;;1.48;;
6735;SDS011;3405;50.576;12.364;2023-08-07T08:23:32;2.42;;;1.40;;
6735;SDS011;3405;50.576;12.364;2023-08-07T08:25:59;1.45;;;1.30;;
6735;SDS011;3405;50.576;12.364;2023-08-07T08:28:25;3.70;;;1.83;;
6735;SDS011;3405;50.576;12.364;2023-08-07T08:30:51;2.15;;;1.60;;
6735;SDS011;3405;50.576;12.364;2023-08-07T08:33:16;3.25;;;1.63;;
6735;SDS011;3405;50.576;12.364;2023-08-07T08:35:42;3.35;;;1.10;;
6735;SDS011;3405;50.576;12.364;2023-08-07T08:38:08;1.35;;;1.25;;
6735;SDS011;3405;50.576;12.364;2023-08-07T08:40:35;1.20;;;1.10;;
6735;SDS011;3405;50.576;12.364;2023-08-07T08:43:03;1.88;;;1.23;;
6735;SDS011;3405;50.576;12.364;2023-08-07T08:45:30;1.30;;;1.20;;
6735;SDS011;3405;50.576;12.364;2023-08-07T08:48:03;1.50;;;1.25;;
6735;SDS011;3405;50.576;12.364;2023-08-07T08:50:29;2.03;;;1.15;;
6735;SDS011;3405;50.576;12.364;2023-08-07T08:52:55;2.83;;;1.05;;
6735;SDS011;3405;50.576;12.364;2023-08-07T08:55:22;2.45;;;1.20;;
6735;SDS011;3405;50.576;12.364;2023-08-07T08:57:48;1.17;;;1.08;;
6735;SDS011;3405;50.576;12.364;2023-08-07T09:00:18;2.53;;;1.00;;
6735;SDS011;3405;50.576;12.364;2023-08-07T09:02:48;1.00;;;0.90;;
6735;SDS011;3405;50.576;12.364;2023-08-07T09:05:15;1.30;;;1.20;;
6735;SDS011;3405;50.576;12.364;2023-08-07T09:07:41;1.02;;;1.00;;
6735;SDS011;3405;50.576;12.364;2023-08-07T09:10:07;1.00;;;1.00;;
6735;SDS011;3405;50.576;12.364;2023-08-07T09:12:36;1.50;;;1.00;;
6735;SDS011;3405;50.576;12.364;2023-08-07T09:15:05;1.40;;;0.85;;
6735;SDS011;3405;50.576;12.364;2023-08-07T09:17:33;1.40;;;1.08;;
6735;SDS011;3405;50.576;12.364;2023-08-07T09:20:00;0.90;;;0.90;;
6735;SDS011;3405;50.576;12.364;2023-08-07T09:22:29;0.80;;;0.80;;
6735;SDS011;3405;50.576;12.364;2023-08-07T09:24:54;0.93;;;0.80;;
6735;SDS011;3405;50.576;12.364;2023-08-07T09:27:21;0.70;;;0.70;;
6735;SDS011;3405;50.576;12.364;2023-08-07T09:29:47;0.98;;;0.70;;
6735;SDS011;3405;50.576;12.364;2023-08-07T09:32:14;1.20;;;0.80;;
6735;SDS011;3405;50.576;12.364;2023-08-07T09:34:40;0.80;;;0.80;;
6735;SDS011;3405;50.576;12.364;2023-08-07T09:37:07;0.70;;;0.70;;
6735;SDS011;3405;50.576;12.364;2023-08-07T09:39:33;0.85;;;0.70;;
6735;SDS011;3405;50.576;12.364;2023-08-07T09:42:00;0.88;;;0.75;;
6735;SDS011;3405;50.576;12.364;2023-08-07T09:44:34;1.33;;;0.80;;
6735;SDS011;3405;50.576;12.364;2023-08-07T09:47:00;0.88;;;0.70;;
6735;SDS011;3405;50.576;12.364;2023-08-07T09:49:32;0.57;;;0.57;;
6735;SDS011;3405;50.576;12.364;2023-08-07T09:51:57;0.82;;;0.75;;
6735;SDS011;3405;50.576;12.364;2023-08-07T09:54:23;0.70;;;0.70;;
6735;SDS011;3405;50.576;12.364;2023-08-07T09:56:49;1.08;;;0.77;;
6735;SDS011;3405;50.576;12.364;2023-08-07T09:59:15;0.60;;;0.60;;
6735;SDS011;3405;50.576;12.364;2023-08-07T10:01:42;0.55;;;0.55;;
6735;SDS011;3405;50.576;12.364;2023-08-07T10:04:09;0.57;;;0.52;;
6735;SDS011;3405;50.576;12.364;2023-08-07T10:06:39;0.50;;;0.50;;
6735;SDS011;3405;50.576;12.364;2023-08-07T10:09:05;0.50;;;0.50;;
6735;SDS011;3405;50.576;12.364;2023-08-07T10:11:32;0.60;;;0.60;;
6735;SDS011;3405;50.576;12.364;2023-08-07T10:13:58;0.60;;;0.60;;
6735;SDS011;3405;50.576;12.364;2023-08-07T10:16:25;0.40;;;0.40;;
6735;SDS011;3405;50.576;12.364;2023-08-07T10:18:52;0.70;;;0.60;;
6735;SDS011;3405;50.576;12.364;2023-08-07T10:21:18;1.73;;;0.45;;
6735;SDS011;3405;50.576;12.364;2023-08-07T10:23:45;0.52;;;0.52;;
6735;SDS011;3405;50.576;12.364;2023-08-07T10:26:11;0.70;;;0.70;;
6735;SDS011;3405;50.576;12.364;2023-08-07T10:28:38;0.60;;;0.50;;
6735;SDS011;3405;50.576;12.364;2023-08-07T10:31:06;1.50;;;0.85;;
6735;SDS011;3405;50.576;12.364;2023-08-07T10:33:32;0.80;;;0.63;;
6735;SDS011;3405;50.576;12.364;2023-08-07T10:35:58;0.80;;;0.60;;
6735;SDS011;3405;50.576;12.364;2023-08-07T10:38:29;0.65;;;0.30;;
6735;SDS011;3405;50.576;12.364;2023-08-07T10:41:08;0.68;;;0.65;;
6735;SDS011;3405;50.576;12.364;2023-08-07T10:43:41;1.35;;;0.50;;
6735;SDS011;3405;50.576;12.364;2023-08-07T10:46:09;0.40;;;0.40;;
6735;SDS011;3405;50.576;12.364;2023-08-07T10:48:39;0.40;;;0.40;;
6735;SDS011;3405;50.576;12.364;2023-08-07T10:51:05;0.30;;;0.30;;
6735;SDS011;3405;50.576;12.364;2023-08-07T10:53:32;0.65;;;0.40;;
6735;SDS011;3405;50.576;12.364;2023-08-07T10:56:05;1.05;;;0.60;;
6735;SDS011;3405;50.576;12.364;2023-08-07T10:58:33;0.85;;;0.30;;
6735;SDS011;3405;50.576;12.364;2023-08-07T11:03:41;0.30;;;0.30;;
6735;SDS011;3405;50.576;12.364;2023-08-07T11:06:09;0.40;;;0.30;;
6735;SDS011;3405;50.576;12.364;2023-08-07T11:08:35;0.45;;;0.30;;
6735;SDS011;3405;50.576;12.364;2023-08-07T11:11:05;0.30;;;0.30;;
6735;SDS011;3405;50.576;12.364;2023-08-07T11:13:31;0.40;;;0.40;;
6735;SDS011;3405;50.576;12.364;2023-08-07T11:15:57;0.43;;;0.35;;
6735;SDS011;3405;50.576;12.364;2023-08-07T11:18:24;1.13;;;0.40;;
6735;SDS011;3405;50.576;12.364;2023-08-07T11:20:50;2.00;;;0.30;;
6735;SDS011;3405;50.576;12.364;2023-08-07T11:23:16;0.28;;;0.28;;
6735;SDS011;3405;50.576;12.364;2023-08-07T11:25:48;1.98;;;0.50;;
6735;SDS011;3405;50.576;12.364;2023-08-07T11:28:14;0.55;;;0.40;;
6735;SDS011;3405;50.576;12.364;2023-08-07T11:30:43;0.38;;;0.38;;
6735;SDS011;3405;50.576;12.364;2023-08-07T11:33:09;0.35;;;0.35;;
6735;SDS011;3405;50.576;12.364;2023-08-07T11:35:38;0.40;;;0.40;;
6735;SDS011;3405;50.576;12.364;2023-08-07T11:38:06;0.43;;;0.40;;
6735;SDS011;3405;50.576;12.364;2023-08-07T11:40:31;1.92;;;0.50;;
6735;SDS011;3405;50.576;12.364;2023-08-07T11:42:57;0.95;;;0.40;;
6735;SDS011;3405;50.576;12.364;2023-08-07T11:45:23;0.77;;;0.52;;
6735;SDS011;3405;50.576;12.364;2023-08-07T11:47:49;3.35;;;0.68;;
6735;SDS011;3405;50.576;12.364;2023-08-07T11:50:15;1.70;;;0.70;;
6735;SDS011;3405;50.576;12.364;2023-08-07T11:52:41;1.02;;;0.60;;
6735;SDS011;3405;50.576;12.364;2023-08-07T11:55:07;1.77;;;0.60;;
6735;SDS011;3405;50.576;12.364;2023-08-07T11:57:34;1.27;;;0.60;;
6735;SDS011;3405;50.576;12.364;2023-08-07T12:00:00;1.90;;;0.50;;
6735;SDS011;3405;50.576;12.364;2023-08-07T12:02:27;1.58;;;0.50;;
6735;SDS011;3405;50.576;12.364;2023-08-07T12:04:57;3.70;;;0.63;;
6735;SDS011;3405;50.576;12.364;2023-08-07T12:07:24;2.00;;;0.60;;
6735;SDS011;3405;50.576;12.364;2023-08-07T12:09:51;0.98;;;0.50;;
6735;SDS011;3405;50.576;12.364;2023-08-07T12:12:19;0.93;;;0.32;;
6735;SDS011;3405;50.576;12.364;2023-08-07T12:14:45;1.63;;;1.10;;
6735;SDS011;3405;50.576;12.364;2023-08-07T12:17:11;3.30;;;0.50;;
6735;SDS011;3405;50.576;12.364;2023-08-07T12:19:38;2.10;;;0.52;;
6735;SDS011;3405;50.576;12.364;2023-08-07T12:22:06;1.27;;;0.40;;
6735;SDS011;3405;50.576;12.364;2023-08-07T12:24:34;1.10;;;0.50;;
6735;SDS011;3405;50.576;12.364;2023-08-07T12:27:00;0.57;;;0.28;;
6735;SDS011;3405;50.576;12.364;2023-08-07T12:29:27;2.55;;;0.40;;
6735;SDS011;3405;50.576;12.364;2023-08-07T12:31:54;0.17;;;0.17;;
6735;SDS011;3405;50.576;12.364;2023-08-07T12:34:20;1.08;;;0.45;;
6735;SDS011;3405;50.576;12.364;2023-08-07T12:36:46;0.65;;;0.40;;
6735;SDS011;3405;50.576;12.364;2023-08-07T12:39:12;0.43;;;0.30;;
6735;SDS011;3405;50.576;12.364;2023-08-07T12:41:38;0.85;;;0.50;;
6735;SDS011;3405;50.576;12.364;2023-08-07T12:44:04;0.30;;;0.30;;
6735;SDS011;3405;50.576;12.364;2023-08-07T12:46:30;2.47;;;0.20;;
6735;SDS011;3405;50.576;12.364;2023-08-07T12:48:56;1.10;;;0.43;;
6735;SDS011;3405;50.576;12.364;2023-08-07T12:51:22;0.05;;;0.05;;
6735;SDS011;3405;50.576;12.364;2023-08-07T12:53:48;1.75;;;0.30;;
6735;SDS011;3405;50.576;12.364;2023-08-07T12:56:16;0.10;;;0.10;;
6735;SDS011;3405;50.576;12.364;2023-08-07T12:58:42;0.20;;;0.20;;
6735;SDS011;3405;50.576;12.364;2023-08-07T13:01:08;0.10;;;0.10;;
6735;SDS011;3405;50.576;12.364;2023-08-07T13:03:35;2.03;;;0.20;;
6735;SDS011;3405;50.576;12.364;2023-08-07T13:06:01;0.20;;;0.20;;
6735;SDS011;3405;50.576;12.364;2023-08-07T13:08:30;0.30;;;0.20;;
6735;SDS011;3405;50.576;12.364;2023-08-07T13:10:58;0.35;;;0.20;;
6735;SDS011;3405;50.576;12.364;2023-08-07T13:13:24;1.65;;;0.30;;
6735;SDS011;3405;50.576;12.364;2023-08-07T13:15:50;0.20;;;0.20;;
6735;SDS011;3405;50.576;12.364;2023-08-07T13:18:16;0.45;;;0.30;;
6735;SDS011;3405;50.576;12.364;2023-08-07T13:20:42;0.10;;;0.10;;
6735;SDS011;3405;50.576;12.364;2023-08-07T13:23:07;0.20;;;0.20;;
6735;SDS011;3405;50.576;12.364;2023-08-07T13:25:33;0.10;;;0.10;;
6735;SDS011;3405;50.576;12.364;2023-08-07T13:27:59;0.80;;;0.45;;
6735;SDS011;3405;50.576;12.364;2023-08-07T13:30:29;0.45;;;0.15;;
6735;SDS011;3405;50.576;12.364;2023-08-07T13:32:55;0.47;;;0.30;;
6735;SDS011;3405;50.576;12.364;2023-08-07T13:35:21;0.17;;;0.17;;
6735;SDS011;3405;50.576;12.364;2023-08-07T13:37:48;0.20;;;0.20;;
6735;SDS011;3405;50.576;12.364;2023-08-07T13:40:14;0.55;;;0.30;;
6735;SDS011;3405;50.576;12.364;2023-08-07T13:42:39;0.68;;;0.30;;
6735;SDS011;3405;50.576;12.364;2023-08-07T13:45:06;0.20;;;0.20;;
6735;SDS011;3405;50.576;12.364;2023-08-07T13:47:32;0.40;;;0.40;;
6735;SDS011;3405;50.576;12.364;2023-08-07T13:49:58;0.20;;;0.20;;
6735;SDS011;3405;50.576;12.364;2023-08-07T13:52:24;0.22;;;0.20;;
6735;SDS011;3405;50.576;12.364;2023-08-07T13:54:50;0.85;;;0.32;;
6735;SDS011;3405;50.576;12.364;2023-08-07T13:57:16;0.35;;;0.30;;
6735;SDS011;3405;50.576;12.364;2023-08-07T13:59:42;0.30;;;0.20;;
6735;SDS011;3405;50.576;12.364;2023-08-07T14:02:08;0.20;;;0.20;;
6735;SDS011;3405;50.576;12.364;2023-08-07T14:04:34;0.20;;;0.20;;
6735;SDS011;3405;50.576;12.364;2023-08-07T14:07:01;0.35;;;0.28;;
6735;SDS011;3405;50.576;12.364;2023-08-07T14:09:27;0.32;;;0.32;;
6735;SDS011;3405;50.576;12.364;2023-08-07T14:11:53;0.40;;;0.30;;
6735;SDS011;3405;50.576;12.364;2023-08-07T14:14:20;0.60;;;0.47;;
6735;SDS011;3405;50.576;12.364;2023-08-07T14:16:46;1.25;;;0.60;;
6735;SDS011;3405;50.576;12.364;2023-08-07T14:19:13;1.05;;;0.50;;
6735;SDS011;3405;50.576;12.364;2023-08-07T14:21:39;0.95;;;0.60;;
6735;SDS011;3405;50.576;12.364;2023-08-07T14:24:05;0.50;;;0.50;;
6735;SDS011;3405;50.576;12.364;2023-08-07T14:26:31;0.98;;;0.70;;
6735;SDS011;3405;50.576;12.364;2023-08-07T14:28:57;1.00;;;0.70;;
6735;SDS011;3405;50.576;12.364;2023-08-07T14:31:23;2.55;;;0.43;;
6735;SDS011;3405;50.576;12.364;2023-08-07T14:33:49;4.13;;;0.70;;
6735;SDS011;3405;50.576;12.364;2023-08-07T14:36:15;8.73;;;1.15;;
6735;SDS011;3405;50.576;12.364;2023-08-07T14:38:41;4.50;;;0.68;;
6735;SDS011;3405;50.576;12.364;2023-08-07T14:41:09;4.63;;;0.68;;
6735;SDS011;3405;50.576;12.364;2023-08-07T14:43:34;2.75;;;0.65;;
6735;SDS011;3405;50.576;12.364;2023-08-07T14:46:01;3.40;;;0.60;;
6735;SDS011;3405;50.576;12.364;2023-08-07T14:48:27;2.72;;;0.63;;
6735;SDS011;3405;50.576;12.364;2023-08-07T14:50:53;2.25;;;0.50;;
6735;SDS011;3405;50.576;12.364;2023-08-07T14:53:20;6.22;;;1.15;;
6735;SDS011;3405;50.576;12.364;2023-08-07T14:55:46;0.60;;;0.60;;
6735;SDS011;3405;50.576;12.364;2023-08-07T14:58:12;1.45;;;0.60;;